Time;durP1;ratioP1;P1;durP2;ratioP2;P2;SDS_P1;SDS_P2;PMS_P1;PMS_P2;Temp;Humidity;BMP_temperature;BMP_pressure;BME280_temperature;BME280_humidity;BME280_pressure;Samples;Min_cycle;Max_cycle;Signal;HPM_P1;HPM_P2
2022/03/14 00:02:05;;;;;;;19.70;15.73;;;9.20;73.00;;;;;;5001751;28;20176;-83
2022/03/14 00:04:37;;;;;;;17.67;13.02;;;9.20;74.20;;;;;;4985159;28;20046;-83
2022/03/14 00:07:04;;;;;;;18.20;15.40;;;9.10;74.30;;;;;;5030480;28;20039;-83
2022/03/14 00:09:30;;;;;;;18.13;14.95;;;9.10;76.70;;;;;;5013276;28;20191;-82
2022/03/14 00:11:57;;;;;;;16.67;14.85;;;9.10;78.80;;;;;;5002465;28;20038;-83
2022/03/14 00:14:25;;;;;;;15.82;13.13;;;9.10;81.00;;;;;;5008458;28;20046;-82
2022/03/14 00:16:52;;;;;;;16.48;12.68;;;9.10;83.90;;;;;;5006806;28;20042;-82
2022/03/14 00:19:20;;;;;;;15.15;12.60;;;9.10;86.70;;;;;;5055158;28;20060;-82
2022/03/14 00:21:46;;;;;;;15.32;11.75;;;9.10;90.00;;;;;;5010599;28;20077;-82
2022/03/14 00:24:12;;;;;;;15.18;11.43;;;9.10;91.80;;;;;;5004582;28;20061;-82
2022/03/14 00:26:39;;;;;;;14.25;11.38;;;9.20;93.90;;;;;;4993679;28;20483;-82
2022/03/14 00:29:06;;;;;;;13.20;10.38;;;9.30;96.40;;;;;;5025878;28;20052;-82
2022/03/14 00:31:31;;;;;;;12.43;9.52;;;9.30;96.30;;;;;;5006828;28;20043;-82
2022/03/14 00:33:57;;;;;;;13.35;10.00;;;9.40;98.70;;;;;;5016772;28;20046;-82
2022/03/14 00:36:25;;;;;;;13.02;9.57;;;9.50;99.00;;;;;;5002223;28;20049;-82
2022/03/14 00:38:52;;;;;;;12.88;9.25;;;9.60;99.90;;;;;;5002153;28;20492;-82
2022/03/14 00:41:17;;;;;;;13.00;10.35;;;9.70;99.90;;;;;;5008449;28;20055;-82
2022/03/14 00:43:44;;;;;;;13.13;9.45;;;9.80;99.50;;;;;;5002688;28;20504;-82
2022/03/14 00:46:10;;;;;;;12.77;9.93;;;9.80;99.60;;;;;;5008674;28;20057;-82
2022/03/14 00:48:36;;;;;;;14.07;9.50;;;9.80;99.90;;;;;;5035173;28;20038;-82
2022/03/14 00:51:02;;;;;;;11.48;8.77;;;9.80;99.90;;;;;;5007765;28;20029;-82
2022/03/14 00:53:28;;;;;;;11.55;8.85;;;9.90;99.90;;;;;;5005777;28;20038;-82
2022/03/14 00:55:54;;;;;;;13.15;9.82;;;9.90;99.90;;;;;;5093710;28;20074;-83
2022/03/14 00:58:20;;;;;;;12.80;9.50;;;9.90;99.90;;;;;;5028036;28;20074;-83
2022/03/14 01:00:48;;;;;;;11.68;8.43;;;9.90;99.90;;;;;;5012057;28;20492;-83
2022/03/14 01:03:14;;;;;;;11.90;9.02;;;9.90;99.90;;;;;;5012233;28;20066;-83
2022/03/14 01:05:40;;;;;;;12.02;8.20;;;9.90;99.90;;;;;;5046501;28;20097;-82
2022/03/14 01:08:06;;;;;;;12.40;9.10;;;9.90;99.90;;;;;;5025885;28;20125;-82
2022/03/14 01:10:32;;;;;;;11.68;8.93;;;9.90;99.90;;;;;;5011688;28;20042;-82
2022/03/14 01:12:58;;;;;;;12.73;8.85;;;9.90;99.90;;;;;;5021872;28;20053;-82
2022/03/14 01:15:24;;;;;;;11.15;8.05;;;9.90;99.90;;;;;;5011275;28;20115;-82
2022/03/14 01:17:50;;;;;;;10.82;8.00;;;9.90;99.90;;;;;;5025385;28;20046;-82
2022/03/14 01:20:16;;;;;;;11.02;8.65;;;9.90;99.90;;;;;;5026848;28;20143;-82
2022/03/14 01:22:42;;;;;;;12.23;8.90;;;9.90;99.90;;;;;;5053421;28;20503;-82
2022/03/14 01:25:08;;;;;;;11.07;8.02;;;9.90;99.90;;;;;;5021302;28;20058;-82
2022/03/14 01:27:34;;;;;;;10.73;8.35;;;9.90;99.90;;;;;;5043800;28;20410;-82
2022/03/14 01:29:59;;;;;;;10.77;7.85;;;9.90;99.90;;;;;;5005984;28;20107;-82
2022/03/14 01:32:25;;;;;;;9.65;6.97;;;9.90;99.90;;;;;;5017501;28;20049;-82
2022/03/14 01:34:50;;;;;;;10.77;7.78;;;9.90;99.90;;;;;;5024036;28;20050;-82
2022/03/14 01:37:18;;;;;;;10.00;7.53;;;9.90;99.90;;;;;;5011430;28;20068;-82
2022/03/14 01:39:44;;;;;;;11.32;7.80;;;9.90;99.90;;;;;;5017986;28;20044;-82
2022/03/14 01:42:16;;;;;;;9.80;7.40;;;9.90;99.90;;;;;;5025330;28;20618;-82
2022/03/14 01:44:41;;;;;;;10.05;7.10;;;9.90;99.90;;;;;;5005025;28;20054;-82
2022/03/14 01:47:07;;;;;;;10.18;7.20;;;9.90;99.90;;;;;;5006434;28;20038;-82
2022/03/14 01:49:32;;;;;;;10.43;7.32;;;9.90;99.90;;;;;;4993790;28;20045;-82
2022/03/14 01:51:59;;;;;;;9.88;7.43;;;9.90;99.90;;;;;;5028597;28;20514;-82
2022/03/14 01:54:25;;;;;;;10.43;6.88;;;9.90;99.90;;;;;;5062332;28;20044;-82
2022/03/14 01:56:50;;;;;;;11.13;7.47;;;9.90;99.90;;;;;;5010731;28;20044;-83
2022/03/14 01:59:18;;;;;;;9.65;6.93;;;9.90;99.90;;;;;;5027492;28;20047;-82
2022/03/14 02:01:43;;;;;;;9.90;7.22;;;9.80;99.90;;;;;;5010711;28;20050;-81
2022/03/14 02:04:09;;;;;;;10.80;7.10;;;9.80;99.90;;;;;;5032575;28;20050;-81
2022/03/14 02:06:35;;;;;;;9.95;6.65;;;9.80;99.90;;;;;;5015204;28;20708;-82
2022/03/14 02:09:02;;;;;;;8.85;6.20;;;9.80;99.90;;;;;;5028095;28;20102;-82
2022/03/14 02:11:28;;;;;;;9.40;6.63;;;9.80;99.90;;;;;;5010166;28;20428;-82
2022/03/14 02:13:53;;;;;;;9.55;6.43;;;9.80;99.90;;;;;;5008804;28;20108;-84
2022/03/14 02:16:19;;;;;;;9.05;6.25;;;9.80;99.90;;;;;;5010320;28;20046;-81
2022/03/14 02:18:44;;;;;;;9.50;6.15;;;9.70;99.90;;;;;;5006962;28;20045;-82
2022/03/14 02:21:10;;;;;;;8.98;6.30;;;9.70;99.90;;;;;;5038146;28;20113;-82
2022/03/14 02:23:35;;;;;;;9.68;6.30;;;9.70;99.90;;;;;;5009859;28;20046;-82
2022/03/14 02:26:01;;;;;;;9.30;6.00;;;9.70;99.90;;;;;;5025753;28;20068;-82
2022/03/14 02:28:27;;;;;;;8.40;5.75;;;9.70;99.90;;;;;;5016946;28;20147;-81
2022/03/14 02:30:53;;;;;;;10.68;6.05;;;9.70;99.90;;;;;;5007192;28;20038;-82
2022/03/14 02:33:19;;;;;;;8.77;5.88;;;9.80;99.90;;;;;;5009671;28;20050;-82
2022/03/14 02:35:47;;;;;;;9.10;6.18;;;9.70;99.90;;;;;;5021613;28;20044;-82
2022/03/14 02:38:15;;;;;;;9.23;6.05;;;9.70;99.90;;;;;;5007681;28;20042;-81
2022/03/14 02:40:47;;;;;;;8.60;5.32;;;9.80;99.90;;;;;;5012564;28;20498;-82
2022/03/14 02:43:18;;;;;;;8.80;4.93;;;9.80;99.90;;;;;;5052179;28;20540;-82
2022/03/14 02:45:45;;;;;;;9.43;6.00;;;9.80;99.90;;;;;;5009431;28;20053;-82
2022/03/14 02:48:12;;;;;;;9.80;6.30;;;9.70;99.90;;;;;;5012220;28;20670;-81
2022/03/14 02:50:40;;;;;;;8.23;4.78;;;9.70;99.90;;;;;;5013200;28;20493;-83
2022/03/14 02:53:05;;;;;;;8.25;4.88;;;9.80;99.90;;;;;;5009294;28;20041;-83
2022/03/14 02:55:31;;;;;;;8.00;4.88;;;9.80;99.90;;;;;;5011547;28;20043;-84
2022/03/14 02:57:59;;;;;;;8.43;4.78;;;9.80;99.90;;;;;;5087007;28;20426;-84
2022/03/14 03:00:24;;;;;;;7.13;4.35;;;9.80;99.90;;;;;;5057189;28;20061;-83
2022/03/14 03:02:51;;;;;;;7.28;4.47;;;9.80;99.90;;;;;;5018305;28;20058;-83
2022/03/14 03:05:17;;;;;;;7.30;4.65;;;9.80;99.90;;;;;;5013303;28;20130;-81
2022/03/14 03:07:42;;;;;;;8.20;4.50;;;9.90;99.90;;;;;;5008822;28;20087;-81
2022/03/14 03:10:09;;;;;;;7.57;4.43;;;9.90;99.90;;;;;;5011298;28;20057;-81
2022/03/14 03:12:36;;;;;;;7.30;4.60;;;9.90;99.90;;;;;;5012847;28;20394;-82
2022/03/14 03:15:02;;;;;;;7.13;4.57;;;9.90;99.90;;;;;;5017398;28;20041;-82
2022/03/14 03:17:27;;;;;;;7.70;4.57;;;9.90;99.90;;;;;;5014830;28;20052;-82
2022/03/14 03:19:53;;;;;;;7.53;4.88;;;9.90;99.90;;;;;;5021841;28;20046;-82
2022/03/14 03:22:18;;;;;;;7.63;4.88;;;9.90;99.90;;;;;;5008108;28;20371;-82
2022/03/14 03:24:44;;;;;;;7.65;4.38;;;9.90;99.90;;;;;;5041229;28;20054;-82
2022/03/14 03:27:10;;;;;;;8.73;4.60;;;9.90;99.90;;;;;;5014493;28;20038;-82
2022/03/14 03:29:36;;;;;;;8.60;4.90;;;9.90;99.90;;;;;;5012456;28;20079;-83
2022/03/14 03:32:02;;;;;;;7.05;4.38;;;9.90;99.90;;;;;;5061461;28;20373;-82
2022/03/14 03:34:27;;;;;;;7.13;4.40;;;9.90;99.90;;;;;;5035894;28;20045;-82
2022/03/14 03:36:53;;;;;;;7.38;4.20;;;9.90;99.90;;;;;;5037631;28;20041;-82
2022/03/14 03:39:19;;;;;;;7.15;4.38;;;9.90;99.90;;;;;;5009152;28;20371;-82
2022/03/14 03:41:44;;;;;;;7.00;4.20;;;9.90;99.90;;;;;;5047777;27;20396;-83
2022/03/14 03:44:10;;;;;;;6.50;4.10;;;9.90;99.90;;;;;;5050938;28;20049;-82
2022/03/14 03:46:36;;;;;;;6.85;4.30;;;9.90;99.90;;;;;;5013901;28;20060;-82
2022/03/14 03:49:03;;;;;;;7.53;4.13;;;9.90;99.90;;;;;;5040604;28;20046;-82
2022/03/14 03:51:28;;;;;;;7.35;4.53;;;9.90;99.90;;;;;;5011802;28;20060;-82
2022/03/14 03:53:54;;;;;;;8.55;4.20;;;9.90;99.90;;;;;;4989398;28;21655;-82
2022/03/14 03:56:20;;;;;;;7.00;3.80;;;10.00;99.90;;;;;;5011619;28;20054;-82
2022/03/14 03:58:46;;;;;;;7.00;3.95;;;9.90;99.90;;;;;;5007932;28;20044;-82
2022/03/14 04:01:12;;;;;;;7.13;3.92;;;10.00;99.90;;;;;;5010112;28;20058;-82
2022/03/14 04:03:37;;;;;;;6.93;3.97;;;9.90;99.90;;;;;;5006628;28;20054;-82
2022/03/14 04:06:03;;;;;;;6.97;3.67;;;10.00;99.90;;;;;;5017148;28;20038;-82
2022/03/14 04:08:30;;;;;;;6.88;3.92;;;10.00;99.90;;;;;;5005453;28;20448;-82
2022/03/14 04:10:57;;;;;;;5.93;3.78;;;10.00;99.90;;;;;;5022369;28;20034;-82
2022/03/14 04:13:26;;;;;;;6.97;4.00;;;10.00;99.90;;;;;;5009205;28;20060;-82
2022/03/14 04:15:53;;;;;;;6.60;3.95;;;10.00;99.90;;;;;;5009789;28;20432;-82
2022/03/14 04:18:22;;;;;;;6.43;3.60;;;10.00;99.90;;;;;;5045099;28;20054;-82
2022/03/14 04:20:48;;;;;;;7.20;3.70;;;10.00;99.90;;;;;;5024619;28;20138;-82
2022/03/14 04:23:15;;;;;;;6.55;3.60;;;10.00;99.90;;;;;;5003604;28;20526;-82
2022/03/14 04:25:41;;;;;;;6.05;3.45;;;10.00;99.90;;;;;;5010075;28;20413;-82
2022/03/14 04:28:06;;;;;;;6.75;4.05;;;9.90;99.90;;;;;;5027748;28;20041;-82
2022/03/14 04:30:32;;;;;;;7.13;4.13;;;9.90;99.90;;;;;;5010950;28;20050;-82
2022/03/14 04:32:57;;;;;;;6.80;3.70;;;9.90;99.90;;;;;;5024051;28;20058;-82
2022/03/14 04:35:23;;;;;;;6.78;4.00;;;9.90;99.90;;;;;;5026190;28;20074;-82
2022/03/14 04:37:48;;;;;;;7.35;4.20;;;9.90;99.90;;;;;;5016933;28;20040;-82
2022/03/14 04:40:14;;;;;;;7.25;4.38;;;9.90;99.90;;;;;;5014051;28;20042;-82
2022/03/14 04:42:40;;;;;;;6.53;3.80;;;9.90;99.90;;;;;;5032553;28;20045;-81
2022/03/14 04:45:06;;;;;;;6.45;3.53;;;9.90;99.90;;;;;;5020215;28;20134;-82
2022/03/14 04:47:32;;;;;;;6.90;4.10;;;9.90;99.90;;;;;;5032488;28;20112;-82
2022/03/14 04:49:58;;;;;;;7.43;4.38;;;9.90;99.90;;;;;;5015113;28;20116;-82
2022/03/14 04:52:24;;;;;;;7.32;4.25;;;9.90;99.90;;;;;;5013106;28;20064;-82
2022/03/14 04:54:50;;;;;;;6.80;4.18;;;10.00;99.90;;;;;;5040497;28;20049;-82
2022/03/14 04:57:15;;;;;;;7.32;4.18;;;9.90;99.90;;;;;;5064105;28;20048;-82
2022/03/14 04:59:41;;;;;;;6.93;4.47;;;9.90;99.90;;;;;;5016741;28;20060;-82
2022/03/14 05:02:06;;;;;;;7.55;4.35;;;10.00;99.90;;;;;;5017017;28;20045;-82
2022/03/14 05:04:33;;;;;;;7.45;4.30;;;10.00;99.90;;;;;;5033824;28;20050;-82
2022/03/14 05:06:59;;;;;;;7.50;4.68;;;10.00;99.90;;;;;;5015718;28;21196;-82
2022/03/14 05:09:25;;;;;;;6.82;4.20;;;10.00;99.90;;;;;;5028096;28;20046;-82
2022/03/14 05:11:51;;;;;;;7.45;4.70;;;10.00;99.90;;;;;;5012280;28;20046;-82
2022/03/14 05:14:16;;;;;;;7.10;4.25;;;10.00;99.90;;;;;;5017054;28;20092;-82
2022/03/14 05:16:43;;;;;;;7.15;4.70;;;10.00;99.90;;;;;;5012309;28;20050;-82
2022/03/14 05:19:08;;;;;;;7.60;4.50;;;10.00;99.90;;;;;;5012144;28;20045;-82
2022/03/14 05:21:34;;;;;;;8.35;4.90;;;10.00;99.90;;;;;;5013225;28;20053;-82
2022/03/14 05:24:00;;;;;;;7.70;5.03;;;10.00;99.90;;;;;;5031679;28;20056;-82
2022/03/14 05:26:26;;;;;;;7.47;4.53;;;10.00;99.90;;;;;;5011976;28;20095;-82
2022/03/14 05:28:51;;;;;;;7.47;4.95;;;10.00;99.90;;;;;;5018712;28;20040;-83
2022/03/14 05:31:17;;;;;;;6.75;4.05;;;10.00;99.90;;;;;;5014683;28;20069;-82
2022/03/14 05:33:43;;;;;;;7.25;4.65;;;10.00;99.90;;;;;;5012959;28;20091;-82
2022/03/14 05:36:08;;;;;;;8.25;5.03;;;10.00;99.90;;;;;;5069533;28;20039;-82
2022/03/14 05:38:34;;;;;;;7.75;4.93;;;10.00;99.90;;;;;;5051462;28;20053;-82
2022/03/14 05:41:00;;;;;;;8.13;4.82;;;10.00;99.90;;;;;;5014232;28;20038;-82
2022/03/14 05:43:27;;;;;;;8.23;4.82;;;10.00;99.90;;;;;;5059944;28;20086;-82
2022/03/14 05:45:53;;;;;;;8.27;4.95;;;10.00;99.90;;;;;;5006060;28;20053;-83
2022/03/14 05:48:19;;;;;;;8.02;5.10;;;10.00;99.90;;;;;;5015525;28;20052;-84
2022/03/14 05:50:45;;;;;;;7.50;4.70;;;9.90;99.90;;;;;;4996077;28;20476;-83
2022/03/14 05:53:12;;;;;;;8.70;4.70;;;9.90;99.90;;;;;;5004865;28;20099;-82
2022/03/14 05:55:38;;;;;;;8.25;4.70;;;9.90;99.90;;;;;;5003767;28;20080;-82
2022/03/14 05:58:05;;;;;;;8.60;5.15;;;9.90;99.90;;;;;;5020361;28;20065;-83
2022/03/14 06:00:31;;;;;;;7.75;4.90;;;9.90;99.90;;;;;;5047126;28;20043;-82
2022/03/14 06:02:56;;;;;;;8.13;5.15;;;9.90;99.90;;;;;;5010001;28;20391;-83
2022/03/14 06:05:22;;;;;;;7.20;4.90;;;9.80;99.90;;;;;;5016144;28;20125;-83
2022/03/14 06:07:49;;;;;;;7.40;5.03;;;9.90;99.90;;;;;;5026407;28;20060;-82
2022/03/14 06:10:15;;;;;;;7.47;4.88;;;9.80;99.90;;;;;;5015334;28;20133;-83
2022/03/14 06:12:42;;;;;;;7.65;4.88;;;9.80;99.90;;;;;;5009660;28;20088;-82
2022/03/14 06:15:10;;;;;;;7.43;4.72;;;9.80;99.90;;;;;;5014409;28;20733;-83
2022/03/14 06:17:36;;;;;;;7.90;4.93;;;9.80;99.90;;;;;;5001922;28;20046;-82
2022/03/14 06:20:02;;;;;;;7.85;5.30;;;9.80;99.90;;;;;;5002790;28;20049;-82
2022/03/14 06:22:28;;;;;;;8.02;5.50;;;9.80;99.90;;;;;;5037950;28;20104;-83
2022/03/14 06:24:54;;;;;;;7.68;5.07;;;9.80;99.90;;;;;;5025473;28;20042;-83
2022/03/14 06:27:23;;;;;;;7.95;5.03;;;9.80;99.90;;;;;;5009248;28;20115;-83
2022/03/14 06:29:49;;;;;;;8.23;5.40;;;9.70;99.90;;;;;;5010968;28;20042;-82
2022/03/14 06:32:15;;;;;;;8.07;5.10;;;9.80;99.90;;;;;;5011264;28;20043;-82
2022/03/14 06:34:42;;;;;;;8.05;5.30;;;9.70;99.90;;;;;;5036849;28;20078;-84
2022/03/14 06:37:08;;;;;;;9.68;5.57;;;9.70;99.90;;;;;;5066169;28;20417;-83
2022/03/14 06:39:38;;;;;;;9.07;5.13;;;9.70;99.90;;;;;;5011811;28;20095;-83
2022/03/14 06:42:08;;;;;;;9.27;5.40;;;9.70;99.90;;;;;;5027111;28;20050;-84
2022/03/14 06:44:38;;;;;;;8.25;5.90;;;9.70;99.90;;;;;;5029744;27;20061;-83
2022/03/14 06:47:08;;;;;;;8.23;5.70;;;9.70;99.90;;;;;;5055201;28;20049;-84
2022/03/14 06:49:34;;;;;;;8.30;5.40;;;9.70;99.90;;;;;;5014382;28;20501;-83
2022/03/14 06:52:00;;;;;;;8.02;5.35;;;9.70;99.90;;;;;;5009189;28;20535;-83
2022/03/14 06:54:26;;;;;;;8.63;5.53;;;9.70;99.90;;;;;;5015060;28;20042;-83
2022/03/14 06:56:51;;;;;;;8.68;5.45;;;9.70;99.90;;;;;;5014509;28;20142;-83
2022/03/14 06:59:17;;;;;;;8.18;5.40;;;9.70;99.90;;;;;;5029885;28;20050;-84
2022/03/14 07:01:43;;;;;;;8.27;5.47;;;9.70;99.90;;;;;;5012649;28;20368;-84
2022/03/14 07:04:09;;;;;;;8.23;5.82;;;9.70;99.90;;;;;;5030632;28;20054;-84
2022/03/14 07:06:34;;;;;;;8.32;5.50;;;9.70;99.90;;;;;;5013495;28;20045;-84
2022/03/14 07:09:00;;;;;;;8.40;5.55;;;9.70;99.90;;;;;;5009335;28;20034;-84
2022/03/14 07:11:25;;;;;;;9.55;6.10;;;9.80;99.90;;;;;;5032252;28;20062;-84
2022/03/14 07:13:51;;;;;;;9.13;6.15;;;9.80;99.90;;;;;;5007002;28;20107;-83
2022/03/14 07:16:17;;;;;;;9.48;6.20;;;9.80;99.90;;;;;;5011695;28;20383;-86
2022/03/14 07:18:44;;;;;;;9.18;6.07;;;9.80;99.90;;;;;;5005562;28;20053;-85
2022/03/14 07:21:09;;;;;;;9.32;6.07;;;9.80;99.90;;;;;;5044093;28;20049;-84
2022/03/14 07:23:35;;;;;;;9.65;6.20;;;9.80;99.90;;;;;;5038638;28;20145;-84
2022/03/14 07:26:00;;;;;;;8.48;6.03;;;9.80;99.90;;;;;;5019986;28;20042;-84
2022/03/14 07:28:26;;;;;;;8.32;6.22;;;9.80;99.90;;;;;;5026135;28;20049;-85
2022/03/14 07:30:51;;;;;;;8.90;6.20;;;9.80;99.90;;;;;;5012776;28;20050;-84
2022/03/14 07:33:18;;;;;;;9.10;6.13;;;9.90;99.90;;;;;;5011988;28;20066;-84
2022/03/14 07:35:44;;;;;;;8.82;6.35;;;9.90;99.90;;;;;;5024318;28;20119;-84
2022/03/14 07:38:10;;;;;;;8.55;6.05;;;9.90;99.90;;;;;;5061363;28;20178;-84
2022/03/14 07:40:36;;;;;;;9.75;6.53;;;9.90;99.90;;;;;;5037891;28;20095;-84
2022/03/14 07:43:03;;;;;;;9.95;7.13;;;9.90;99.90;;;;;;5023662;28;20042;-84
2022/03/14 07:45:29;;;;;;;10.30;7.00;;;10.00;99.90;;;;;;5016909;28;20109;-84
2022/03/14 07:47:56;;;;;;;9.52;6.93;;;10.00;99.90;;;;;;4999872;28;20046;-85
2022/03/14 07:50:22;;;;;;;9.60;6.78;;;10.00;99.90;;;;;;5009564;28;20055;-85
2022/03/14 07:52:48;;;;;;;9.45;6.80;;;10.10;99.90;;;;;;5035756;28;20037;-85
2022/03/14 07:55:14;;;;;;;9.55;6.60;;;10.10;99.90;;;;;;5039617;28;20052;-85
2022/03/14 07:57:40;;;;;;;9.00;6.60;;;10.10;99.90;;;;;;5015775;28;20045;-84
2022/03/14 08:00:10;;;;;;;9.63;7.10;;;10.10;99.90;;;;;;5072280;28;20094;-85
2022/03/14 08:02:37;;;;;;;9.93;7.30;;;10.20;99.90;;;;;;5015320;28;20424;-85
2022/03/14 08:05:03;;;;;;;9.68;7.20;;;10.20;99.90;;;;;;5022546;28;20122;-84
2022/03/14 08:07:29;;;;;;;9.63;7.03;;;10.20;99.90;;;;;;5067813;28;20048;-84
2022/03/14 08:09:56;;;;;;;9.57;7.05;;;10.20;99.90;;;;;;5011593;28;20533;-84
2022/03/14 08:12:22;;;;;;;9.80;7.15;;;10.20;99.90;;;;;;5030467;28;20053;-84
2022/03/14 08:14:51;;;;;;;10.98;7.50;;;10.30;99.90;;;;;;5033644;28;20044;-84
2022/03/14 08:17:18;;;;;;;8.95;7.07;;;10.30;99.90;;;;;;5026132;28;20082;-85
2022/03/14 08:19:44;;;;;;;9.88;7.15;;;10.30;99.90;;;;;;5033545;28;20041;-84
2022/03/14 08:22:10;;;;;;;9.90;6.93;;;10.30;99.90;;;;;;5053849;28;20045;-84
2022/03/14 08:24:36;;;;;;;9.55;7.70;;;10.30;99.90;;;;;;5013163;28;20090;-84
2022/03/14 08:27:02;;;;;;;10.13;7.53;;;10.30;99.90;;;;;;5013719;28;20042;-83
2022/03/14 08:29:28;;;;;;;10.25;7.68;;;10.30;99.90;;;;;;5028073;28;20456;-85
2022/03/14 08:31:54;;;;;;;10.35;8.23;;;10.30;99.90;;;;;;5007982;28;20046;-84
2022/03/14 08:34:20;;;;;;;11.73;7.97;;;10.30;99.90;;;;;;5023581;28;20508;-85
2022/03/14 08:36:46;;;;;;;11.27;8.32;;;10.30;99.90;;;;;;5038337;28;20145;-86
2022/03/14 08:39:12;;;;;;;10.65;8.00;;;10.20;99.90;;;;;;5022962;28;20053;-85
2022/03/14 08:41:39;;;;;;;10.52;8.20;;;10.20;99.90;;;;;;5011490;28;20068;-84
2022/03/14 08:44:05;;;;;;;10.95;8.48;;;10.20;99.90;;;;;;5061750;28;20042;-84
2022/03/14 08:46:31;;;;;;;10.85;8.93;;;10.20;99.90;;;;;;5029846;28;20492;-84
2022/03/14 08:48:57;;;;;;;10.82;8.57;;;10.20;99.90;;;;;;5008226;28;20046;-84
2022/03/14 08:51:23;;;;;;;11.32;8.57;;;10.20;99.90;;;;;;5010742;28;20041;-85
2022/03/14 08:53:48;;;;;;;11.48;8.98;;;10.20;99.90;;;;;;5010015;28;20043;-85
2022/03/14 08:56:14;;;;;;;10.98;8.93;;;10.20;99.90;;;;;;5065048;28;20036;-84
2022/03/14 08:58:40;;;;;;;13.55;10.13;;;10.20;99.90;;;;;;5009244;28;20054;-85
2022/03/14 09:01:07;;;;;;;12.20;9.95;;;10.20;99.90;;;;;;5046450;28;20583;-84
2022/03/14 09:03:32;;;;;;;12.63;10.48;;;10.20;99.90;;;;;;5006444;28;20085;-84
2022/03/14 09:05:58;;;;;;;13.18;10.98;;;10.20;99.90;;;;;;5014206;28;20462;-84
2022/03/14 09:08:24;;;;;;;14.45;12.07;;;10.20;99.90;;;;;;5015202;28;20103;-84
2022/03/14 09:10:50;;;;;;;15.25;12.98;;;10.10;99.90;;;;;;5026702;28;20142;-84
2022/03/14 09:13:17;;;;;;;16.88;14.60;;;10.00;99.90;;;;;;5005522;28;20409;-84
2022/03/14 09:15:43;;;;;;;18.98;16.58;;;9.90;99.90;;;;;;5025129;28;20045;-84
2022/03/14 09:18:09;;;;;;;20.77;17.30;;;9.80;99.90;;;;;;5011015;28;20065;-83
2022/03/14 09:20:38;;;;;;;20.50;17.05;;;9.70;99.90;;;;;;5038499;28;20455;-83
2022/03/14 09:23:04;;;;;;;22.25;18.20;;;9.70;99.90;;;;;;5012955;28;20042;-84
2022/03/14 09:25:30;;;;;;;20.80;17.30;;;9.70;99.90;;;;;;5011386;28;20053;-84
2022/03/14 09:27:56;;;;;;;23.55;17.33;;;9.60;99.90;;;;;;5023317;28;20452;-83
2022/03/14 09:30:22;;;;;;;21.10;17.42;;;9.60;99.90;;;;;;5103700;28;20047;-84
2022/03/14 09:32:48;;;;;;;22.60;17.25;;;9.60;99.90;;;;;;5075287;28;20041;-83
2022/03/14 09:35:14;;;;;;;21.73;16.77;;;9.50;99.90;;;;;;5013208;28;20050;-83
2022/03/14 09:37:41;;;;;;;20.98;16.55;;;9.50;99.90;;;;;;5014841;28;20038;-83
2022/03/14 09:40:10;;;;;;;20.65;16.63;;;9.50;99.90;;;;;;5015722;28;20040;-85
2022/03/14 09:42:38;;;;;;;22.02;17.15;;;9.50;99.90;;;;;;5027488;28;20054;-83
2022/03/14 09:45:05;;;;;;;22.80;17.85;;;9.50;99.90;;;;;;5009456;28;20555;-86
2022/03/14 09:47:36;;;;;;;23.27;17.92;;;9.50;99.90;;;;;;5041415;28;20420;-84
2022/03/14 09:50:04;;;;;;;23.98;17.83;;;9.50;99.90;;;;;;5013385;28;20049;-84
2022/03/14 09:52:31;;;;;;;22.42;17.08;;;9.50;99.90;;;;;;5011067;28;20394;-84
2022/03/14 09:54:57;;;;;;;21.35;17.05;;;9.50;99.90;;;;;;5014461;28;20042;-85
2022/03/14 09:57:23;;;;;;;23.02;17.15;;;9.50;99.90;;;;;;5044345;28;20477;-84
2022/03/14 09:59:49;;;;;;;24.50;17.08;;;9.50;99.90;;;;;;5009961;28;20053;-84
2022/03/14 10:02:15;;;;;;;24.20;17.55;;;9.50;99.90;;;;;;5023550;28;20437;-83
2022/03/14 10:04:41;;;;;;;23.08;17.13;;;9.50;99.90;;;;;;5034839;28;20043;-84
2022/03/14 10:07:07;;;;;;;24.35;17.63;;;9.50;99.90;;;;;;5022145;28;20482;-83
2022/03/14 10:09:34;;;;;;;25.05;18.27;;;9.50;99.90;;;;;;5018588;28;20551;-85
2022/03/14 10:12:00;;;;;;;25.05;17.95;;;9.60;99.90;;;;;;5007658;28;20077;-84
2022/03/14 10:14:26;;;;;;;24.80;18.48;;;9.60;99.90;;;;;;5011098;28;20470;-86
2022/03/14 10:16:56;;;;;;;24.02;17.02;;;9.60;99.90;;;;;;5013823;28;20409;-85
2022/03/14 10:19:30;;;;;;;24.02;17.77;;;9.60;99.90;;;;;;5071877;28;20092;-84
2022/03/14 10:21:55;;;;;;;24.90;17.05;;;9.60;99.90;;;;;;5019242;28;20071;-85
2022/03/14 10:24:22;;;;;;;23.48;18.10;;;9.60;99.90;;;;;;5057401;28;20440;-83
2022/03/14 10:26:49;;;;;;;24.83;18.20;;;9.70;99.90;;;;;;5017917;28;20497;-83
2022/03/14 10:29:18;;;;;;;27.60;19.27;;;9.70;99.90;;;;;;5010986;28;20041;-85
2022/03/14 10:31:54;;;;;;;27.38;18.98;;;9.70;99.90;;;;;;5010605;28;20117;-84
2022/03/14 10:34:20;;;;;;;23.05;17.02;;;9.70;99.90;;;;;;5075173;28;20043;-85
2022/03/14 10:36:51;;;;;;;24.10;17.30;;;9.80;99.90;;;;;;5031825;28;20395;-83
2022/03/14 10:39:28;;;;;;;21.08;16.08;;;9.80;99.90;;;;;;5045035;28;20114;-85
2022/03/14 10:42:03;;;;;;;24.02;16.40;;;9.80;99.90;;;;;;5011367;28;20054;-83
2022/03/14 10:44:29;;;;;;;23.15;15.43;;;9.80;99.90;;;;;;5004678;28;20128;-84
2022/03/14 10:47:01;;;;;;;24.73;16.75;;;9.90;99.90;;;;;;5022254;28;20068;-84
2022/03/14 10:49:29;;;;;;;21.88;15.25;;;10.00;99.90;;;;;;5028752;28;20549;-83
2022/03/14 10:52:00;;;;;;;26.65;15.48;;;10.00;99.90;;;;;;5029380;28;20071;-84
2022/03/14 10:54:26;;;;;;;22.42;15.30;;;10.00;99.90;;;;;;5010041;28;20105;-84
2022/03/14 10:57:26;;;;;;;20.40;14.77;;;10.10;99.90;;;;;;5054928;28;20145;-84
2022/03/14 10:59:54;;;;;;;24.40;15.48;;;10.10;99.90;;;;;;5007146;28;20077;-84
2022/03/14 11:02:22;;;;;;;21.75;15.32;;;10.10;99.90;;;;;;5029768;28;20197;-83
2022/03/14 11:04:49;;;;;;;21.15;14.55;;;10.20;99.90;;;;;;5007402;28;20046;-83
2022/03/14 11:07:17;;;;;;;21.23;13.85;;;10.30;99.90;;;;;;5008297;28;20045;-83
2022/03/14 11:09:48;;;;;;;19.48;12.88;;;10.30;99.90;;;;;;5009711;28;20390;-83
2022/03/14 11:12:21;;;;;;;21.73;14.23;;;10.30;99.90;;;;;;5008802;28;20045;-84
2022/03/14 11:15:07;;;;;;;19.27;13.38;;;10.30;99.90;;;;;;5006090;28;20625;-84
2022/03/14 11:17:34;;;;;;;17.95;11.80;;;10.30;99.90;;;;;;5005026;28;20732;-83
2022/03/14 11:20:00;;;;;;;18.55;11.10;;;10.40;99.90;;;;;;5008915;28;20046;-84
2022/03/14 11:22:27;;;;;;;19.20;11.57;;;10.40;99.90;;;;;;5023504;28;20094;-83
2022/03/14 11:25:00;;;;;;;19.52;10.70;;;10.40;99.90;;;;;;5011222;28;20494;-84
2022/03/14 11:27:28;;;;;;;17.48;11.57;;;10.50;99.90;;;;;;5035826;28;20045;-84
2022/03/14 11:30:03;;;;;;;18.15;11.82;;;10.40;99.90;;;;;;5028118;28;20049;-87
2022/03/14 11:32:29;;;;;;;22.63;13.00;;;10.40;99.90;;;;;;5008264;28;20817;-83
2022/03/14 11:34:55;;;;;;;18.27;12.60;;;10.40;99.90;;;;;;5036077;28;20049;-88
2022/03/14 11:37:21;;;;;;;18.33;12.02;;;10.40;99.90;;;;;;5004403;28;20257;-84
2022/03/14 11:39:47;;;;;;;20.15;12.00;;;10.40;99.90;;;;;;5012568;28;20034;-83
2022/03/14 11:42:15;;;;;;;19.83;11.10;;;10.40;99.90;;;;;;5012297;28;20516;-84
2022/03/14 11:44:44;;;;;;;17.23;10.68;;;10.50;99.90;;;;;;5051337;28;20054;-84
2022/03/14 11:47:12;;;;;;;17.30;10.02;;;10.50;99.90;;;;;;5075629;28;20045;-84
2022/03/14 11:49:38;;;;;;;15.20;9.15;;;10.50;99.90;;;;;;5015640;28;20136;-82
2022/03/14 11:52:19;;;;;;;15.15;9.43;;;10.60;99.90;;;;;;5014935;28;20049;-83
2022/03/14 11:54:50;;;;;;;15.02;8.98;;;10.50;99.90;;;;;;5011335;28;20076;-84
2022/03/14 11:57:39;;;;;;;15.90;9.40;;;10.60;99.90;;;;;;5084418;28;20041;-81
2022/03/14 12:00:27;;;;;;;16.75;9.95;;;10.60;99.90;;;;;;5011387;28;20381;-81
2022/03/14 12:02:58;;;;;;;18.60;10.82;;;10.60;99.90;;;;;;5026781;28;20127;-80
2022/03/14 12:05:34;;;;;;;16.58;11.13;;;10.70;99.90;;;;;;5010206;28;20054;-82
2022/03/14 12:08:00;;;;;;;17.25;12.02;;;10.70;99.90;;;;;;5016853;28;20045;-80
2022/03/14 12:10:29;;;;;;;19.85;12.68;;;10.80;99.90;;;;;;5021431;28;20038;-83
2022/03/14 12:12:58;;;;;;;18.88;12.82;;;10.80;99.90;;;;;;5008893;28;20072;-83
2022/03/14 12:15:36;;;;;;;16.27;12.60;;;10.90;99.90;;;;;;5009260;28;20071;-84
2022/03/14 12:18:02;;;;;;;20.00;14.50;;;10.90;99.90;;;;;;5006770;28;20049;-84
2022/03/14 12:20:29;;;;;;;20.88;14.55;;;11.00;99.90;;;;;;5011043;28;20485;-83
2022/03/14 12:22:54;;;;;;;20.20;14.57;;;11.00;99.90;;;;;;5007338;28;20038;-85
2022/03/14 12:25:41;;;;;;;19.55;14.68;;;11.10;99.90;;;;;;5027611;28;20042;-84
2022/03/14 12:28:31;;;;;;;20.27;14.82;;;11.10;99.90;;;;;;5094623;28;20035;-81
2022/03/14 12:31:03;;;;;;;18.58;14.73;;;11.20;99.90;;;;;;5008587;28;20045;-80
2022/03/14 12:33:34;;;;;;;17.42;14.75;;;11.30;99.90;;;;;;5094509;28;20052;-82
2022/03/14 12:36:22;;;;;;;18.90;15.17;;;11.40;99.90;;;;;;5009170;28;20077;-80
2022/03/14 12:39:06;;;;;;;19.10;15.98;;;11.40;99.90;;;;;;5010346;28;20377;-81
2022/03/14 12:41:33;;;;;;;21.30;16.67;;;11.60;99.90;;;;;;5007567;28;20128;-81
2022/03/14 12:43:59;;;;;;;21.17;17.05;;;11.70;99.90;;;;;;5084417;28;20056;-81
2022/03/14 12:46:26;;;;;;;22.80;17.10;;;11.70;99.90;;;;;;5100093;28;20058;-81